createdAt,value
2018-02-18T00:02:00.023Z,113.00
2018-02-18T00:04:27.517Z,121.50
2018-02-18T00:06:55.756Z,126.83
2018-02-18T00:09:23.241Z,117.77
2018-02-18T00:11:51.508Z,126.10
2018-02-18T00:14:28.901Z,124.07
2018-02-18T00:16:56.397Z,121.33
2018-02-18T00:19:23.872Z,129.53
2018-02-18T00:21:51.345Z,124.27
2018-02-18T00:24:18.860Z,120.27
2018-02-18T00:26:47.101Z,126.87
2018-02-18T00:29:14.580Z,120.20
2018-02-18T00:31:42.861Z,123.37
2018-02-18T00:34:11.117Z,115.33
2018-02-18T00:36:38.596Z,114.73
2018-02-18T00:39:06.857Z,122.63
2018-02-18T00:41:34.329Z,127.43
2018-02-18T00:44:02.573Z,119.67
2018-02-18T00:46:30.073Z,126.20
2018-02-18T00:48:58.307Z,125.97
2018-02-18T00:51:25.797Z,130.60
2018-02-18T00:53:54.080Z,126.63
2018-02-18T00:56:22.321Z,125.40
2018-02-18T00:58:49.797Z,125.20
2018-02-18T01:01:17.283Z,122.70
2018-02-18T01:03:45.521Z,141.63
2018-02-18T01:06:13.017Z,127.63
2018-02-18T01:08:41.256Z,120.27
2018-02-18T01:11:08.734Z,131.33
2018-02-18T01:13:37.737Z,123.40
2018-02-18T01:16:06.017Z,132.20
2018-02-18T01:18:34.256Z,129.77
2018-02-18T01:21:01.737Z,126.97
2018-02-18T01:23:29.225Z,138.83
2018-02-18T01:25:56.728Z,133.23
2018-02-18T01:28:24.196Z,126.17
2018-02-18T01:30:51.688Z,130.20
2018-02-18T01:33:19.946Z,131.80
2018-02-18T01:35:47.425Z,125.83
2018-02-18T01:38:15.676Z,127.87
2018-02-18T01:40:43.258Z,143.93
2018-02-18T01:43:10.733Z,141.30
2018-02-18T01:45:38.981Z,131.50
2018-02-18T01:48:06.450Z,126.60
2018-02-18T01:50:37.709Z,130.93
2018-02-18T01:53:05.961Z,125.60
2018-02-18T01:55:33.445Z,128.07
2018-02-18T01:58:01.697Z,122.40
2018-02-18T02:00:29.273Z,131.10
2018-02-18T02:02:56.749Z,116.83
2018-02-18T02:05:24.996Z,122.43
2018-02-18T02:07:52.468Z,123.77
2018-02-18T02:10:20.724Z,120.87
2018-02-18T02:12:48.225Z,110.87
2018-02-18T02:15:15.709Z,112.47
2018-02-18T02:17:43.180Z,124.00
2018-02-18T02:20:10.793Z,118.10
2018-02-18T02:22:39.028Z,116.03
2018-02-18T02:25:06.504Z,110.93
2018-02-18T02:27:34.008Z,130.93
2018-02-18T02:30:01.486Z,116.57
2018-02-18T02:32:28.964Z,119.97
2018-02-18T02:34:56.458Z,124.37
2018-02-18T02:37:24.704Z,125.27
2018-02-18T02:39:52.181Z,134.80
2018-02-18T02:42:19.685Z,132.83
2018-02-18T02:44:47.169Z,130.87
2018-02-18T02:47:14.648Z,118.93
2018-02-18T02:49:42.225Z,131.90
2018-02-18T02:52:09.701Z,130.17
2018-02-18T02:54:37.941Z,130.90
2018-02-18T02:57:05.442Z,142.80
2018-02-18T02:59:33.685Z,137.03
2018-02-18T03:02:01.165Z,123.90
2018-02-18T03:04:29.428Z,135.37
2018-02-18T03:06:56.904Z,129.20
2018-02-18T03:09:25.165Z,139.60
2018-02-18T03:11:52.668Z,143.90
2018-02-18T03:14:20.149Z,129.43
2018-02-18T03:16:47.629Z,142.20
2018-02-18T03:19:16.784Z,135.80
2018-02-18T03:21:44.256Z,136.10
2018-02-18T03:24:11.748Z,142.97
2018-02-18T03:26:39.245Z,136.87
2018-02-18T03:29:06.721Z,130.27
2018-02-18T03:31:34.198Z,141.10
2018-02-18T03:34:01.692Z,136.33
2018-02-18T03:36:29.161Z,137.27
2018-02-18T03:38:57.401Z,136.93
2018-02-18T03:41:24.925Z,139.40
2018-02-18T03:43:53.411Z,141.13
2018-02-18T03:46:21.857Z,127.97
2018-02-18T03:48:50.101Z,125.37
2018-02-18T03:51:17.574Z,145.50
2018-02-18T03:53:45.068Z,120.17
2018-02-18T03:56:13.306Z,136.87
2018-02-18T03:58:40.788Z,128.57
2018-02-18T04:01:09.057Z,122.73
2018-02-18T04:03:36.536Z,137.10
2018-02-18T04:06:04.777Z,138.07
2018-02-18T04:08:32.276Z,126.97
2018-02-18T04:11:00.516Z,140.83
2018-02-18T04:13:27.993Z,132.83
2018-02-18T04:15:56.258Z,132.57
2018-02-18T04:18:23.733Z,135.23
2018-02-18T04:20:51.980Z,118.30
2018-02-18T04:23:19.472Z,142.03
2018-02-18T04:25:47.713Z,137.67
2018-02-18T04:28:15.196Z,128.90
2018-02-18T04:30:43.472Z,127.70
2018-02-18T04:33:10.950Z,137.80
2018-02-18T04:35:39.196Z,152.27
2018-02-18T04:38:08.206Z,129.57
2018-02-18T04:40:36.444Z,125.23
2018-02-18T04:43:04.873Z,133.60
2018-02-18T04:45:33.137Z,130.73
2018-02-18T04:48:00.609Z,131.40
2018-02-18T04:50:28.856Z,133.87
2018-02-18T04:52:56.352Z,137.47
2018-02-18T04:55:24.595Z,125.17
2018-02-18T04:57:52.073Z,131.60
2018-02-18T05:00:20.333Z,118.33
2018-02-18T05:02:47.804Z,114.67
2018-02-18T05:05:15.285Z,130.70
2018-02-18T05:07:43.537Z,124.23
2018-02-18T05:10:11.013Z,124.17
2018-02-18T05:12:39.273Z,126.23
2018-02-18T05:15:07.516Z,118.40
2018-02-18T05:17:35.021Z,122.17
2018-02-18T05:20:03.284Z,120.87
2018-02-18T05:22:30.762Z,118.90
2018-02-18T05:24:59.008Z,122.50
2018-02-18T05:27:27.279Z,111.93
2018-02-18T05:29:54.752Z,106.80
2018-02-18T05:32:22.225Z,121.17
2018-02-18T05:34:50.496Z,105.53
2018-02-18T05:37:18.745Z,100.47
2018-02-18T05:39:46.221Z,96.43
2018-02-18T05:42:13.716Z,104.37
2018-02-18T05:44:41.193Z,107.20
2018-02-18T05:47:08.666Z,104.13
2018-02-18T05:49:36.164Z,109.70
2018-02-18T05:52:03.632Z,87.60
2018-02-18T05:54:31.864Z,102.17
2018-02-18T05:56:59.359Z,94.97
2018-02-18T05:59:26.832Z,98.70
2018-02-18T06:01:55.072Z,93.03
2018-02-18T06:04:22.553Z,104.57
2018-02-18T06:06:50.793Z,99.23
2018-02-18T06:09:18.292Z,100.70
2018-02-18T06:11:46.532Z,92.73
2018-02-18T06:14:13.996Z,97.77
2018-02-18T06:16:41.478Z,99.67
2018-02-18T06:19:08.949Z,92.37
2018-02-18T06:21:37.207Z,81.57
2018-02-18T06:24:04.681Z,99.80
2018-02-18T06:26:32.920Z,99.27
2018-02-18T06:29:00.416Z,92.07
2018-02-18T06:31:28.657Z,89.47
2018-02-18T06:33:56.128Z,91.77
2018-02-18T06:36:23.616Z,87.67
2018-02-18T06:38:51.851Z,91.43
2018-02-18T06:41:19.324Z,88.20
2018-02-18T06:43:46.816Z,87.77
2018-02-18T06:46:15.058Z,89.33
2018-02-18T06:48:42.534Z,85.73
2018-02-18T06:51:10.029Z,90.63
2018-02-18T06:53:37.500Z,94.87
2018-02-18T06:56:04.974Z,99.60
2018-02-18T06:58:32.468Z,82.90
2018-02-18T07:00:59.941Z,84.37
2018-02-18T07:03:28.176Z,84.53
2018-02-18T07:05:55.664Z,82.87
2018-02-18T07:08:23.940Z,94.27
2018-02-18T07:10:52.923Z,75.93
2018-02-18T07:13:20.404Z,92.50
2018-02-18T07:15:48.636Z,90.70
2018-02-18T07:18:16.135Z,81.30
2018-02-18T07:20:44.409Z,84.97
2018-02-18T07:23:11.909Z,82.23
2018-02-18T07:25:39.409Z,90.60
2018-02-18T07:28:06.885Z,99.93
2018-02-18T07:30:35.161Z,99.17
2018-02-18T07:33:02.636Z,97.13
2018-02-18T07:35:30.876Z,98.13
2018-02-18T07:37:58.374Z,100.50
2018-02-18T07:40:26.621Z,97.03
2018-02-18T07:42:54.093Z,95.23
2018-02-18T07:45:22.348Z,100.50
2018-02-18T07:47:49.816Z,94.40
2018-02-18T07:50:23.169Z,102.60
2018-02-18T07:52:50.656Z,99.60
2018-02-18T07:55:18.128Z,100.40
2018-02-18T07:57:45.611Z,93.20
2018-02-18T08:00:13.855Z,110.73
2018-02-18T08:02:41.336Z,116.13
2018-02-18T08:05:09.612Z,107.57
2018-02-18T08:07:37.853Z,94.63
2018-02-18T08:10:05.344Z,90.77
2018-02-18T08:12:33.609Z,92.80
2018-02-18T08:15:01.082Z,96.83
2018-02-18T08:17:29.349Z,103.30
2018-02-18T08:19:58.324Z,96.33
2018-02-18T08:22:25.792Z,94.47
2018-02-18T08:24:53.285Z,93.90
2018-02-18T08:27:21.524Z,99.43
2018-02-18T08:29:49.000Z,93.27
2018-02-18T08:32:16.492Z,106.23
2018-02-18T08:34:44.029Z,95.13
2018-02-18T08:37:12.296Z,106.77
2018-02-18T08:39:39.895Z,98.90
2018-02-18T08:42:07.470Z,97.73
2018-02-18T08:44:35.675Z,100.27
2018-02-18T08:47:03.167Z,92.40
2018-02-18T08:49:31.404Z,85.57
2018-02-18T08:51:58.897Z,104.57
2018-02-18T08:54:27.180Z,85.63
2018-02-18T08:56:55.422Z,102.80
2018-02-18T08:59:22.912Z,96.87
2018-02-18T09:01:51.173Z,107.27
2018-02-18T09:04:18.645Z,89.27
2018-02-18T09:06:46.212Z,80.47
2018-02-18T09:09:14.470Z,94.27
2018-02-18T09:11:41.948Z,83.77
2018-02-18T09:14:10.180Z,91.17
2018-02-18T09:16:37.661Z,89.13
2018-02-18T09:19:05.142Z,105.13
2018-02-18T09:21:33.401Z,89.97
2018-02-18T09:24:01.641Z,96.73
2018-02-18T09:26:29.249Z,94.57
2018-02-18T09:28:56.812Z,80.27
2018-02-18T09:31:24.288Z,82.00
2018-02-18T09:33:52.525Z,90.30
2018-02-18T09:36:20.012Z,92.53
2018-02-18T09:38:48.250Z,93.73
2018-02-18T09:41:15.723Z,87.20
2018-02-18T09:43:43.237Z,82.43
2018-02-18T09:46:10.716Z,92.37
2018-02-18T09:48:38.203Z,99.17
2018-02-18T09:51:05.678Z,96.57
2018-02-18T09:53:33.916Z,81.97
2018-02-18T09:56:01.407Z,92.07
2018-02-18T09:58:29.657Z,91.47
2018-02-18T10:00:57.128Z,89.10
2018-02-18T10:03:24.659Z,92.27
2018-02-18T10:05:52.886Z,78.07
2018-02-18T10:08:21.149Z,90.60
2018-02-18T10:10:48.616Z,90.90
2018-02-18T10:13:16.177Z,80.73
2018-02-18T10:15:43.669Z,80.13
2018-02-18T10:18:11.147Z,85.03
2018-02-18T10:20:38.617Z,89.87
2018-02-18T10:23:06.097Z,97.83
2018-02-18T10:25:33.572Z,93.63
2018-02-18T10:28:01.836Z,87.57
2018-02-18T10:30:29.402Z,86.10
2018-02-18T10:32:57.556Z,90.90
2018-02-18T10:35:25.053Z,87.30
2018-02-18T10:37:53.292Z,92.67
2018-02-18T10:40:20.777Z,90.13
2018-02-18T10:42:48.275Z,87.30
2018-02-18T10:45:15.749Z,93.80
2018-02-18T10:47:43.217Z,80.80
2018-02-18T10:50:10.697Z,97.87
2018-02-18T10:52:38.173Z,85.07
2018-02-18T10:55:06.442Z,89.43
2018-02-18T10:57:33.941Z,80.43
2018-02-18T11:00:01.414Z,77.40
2018-02-18T11:02:28.910Z,69.97
2018-02-18T11:04:56.377Z,75.40
2018-02-18T11:07:23.855Z,83.60
2018-02-18T11:09:52.113Z,83.13
2018-02-18T11:12:19.590Z,79.07
2018-02-18T11:14:47.824Z,75.37
2018-02-18T11:17:15.317Z,84.40
2018-02-18T11:19:43.557Z,78.07
2018-02-18T11:22:11.032Z,85.67
2018-02-18T11:24:38.512Z,84.43
2018-02-18T11:27:06.757Z,83.13
2018-02-18T11:29:34.245Z,79.93
2018-02-18T11:32:02.496Z,82.87
2018-02-18T11:34:31.605Z,73.77
2018-02-18T11:36:59.939Z,80.70
2018-02-18T11:39:28.258Z,78.13
2018-02-18T11:41:55.765Z,77.83
2018-02-18T11:44:23.264Z,86.50
2018-02-18T11:46:50.841Z,84.37
2018-02-18T11:49:18.415Z,92.27
2018-02-18T11:51:46.022Z,94.93
2018-02-18T11:54:13.549Z,81.73
2018-02-18T11:56:41.930Z,88.47
2018-02-18T11:59:10.218Z,91.03
2018-02-18T12:01:38.642Z,85.73
2018-02-18T12:04:06.118Z,89.50
2018-02-18T12:06:33.761Z,87.37
2018-02-18T12:09:01.321Z,85.23
2018-02-18T12:11:28.804Z,88.37
2018-02-18T12:13:56.299Z,92.70
2018-02-18T12:16:23.774Z,93.17
2018-02-18T12:18:51.339Z,80.00
2018-02-18T12:21:18.977Z,78.70
2018-02-18T12:23:47.213Z,77.43
2018-02-18T12:26:14.864Z,80.80
2018-02-18T12:28:42.363Z,79.90
2018-02-18T12:31:10.657Z,86.67
2018-02-18T12:33:38.210Z,79.53
2018-02-18T12:36:06.481Z,81.67
2018-02-18T12:38:34.749Z,77.17
2018-02-18T12:41:02.305Z,86.27
2018-02-18T12:43:30.682Z,87.80
2018-02-18T12:45:58.268Z,75.50
2018-02-18T12:48:26.520Z,82.50
2018-02-18T12:50:54.025Z,89.77
2018-02-18T12:53:21.644Z,92.17
2018-02-18T12:55:49.907Z,84.87
2018-02-18T12:58:17.409Z,74.33
2018-02-18T13:00:44.891Z,86.10
2018-02-18T13:03:12.407Z,84.57
2018-02-18T13:05:40.719Z,71.63
2018-02-18T13:08:08.196Z,73.60
2018-02-18T13:10:35.676Z,82.63
2018-02-18T13:13:03.176Z,77.93
2018-02-18T13:15:31.516Z,81.47
2018-02-18T13:17:59.005Z,67.60
2018-02-18T13:20:27.334Z,77.17
2018-02-18T13:22:54.848Z,58.80
2018-02-18T13:25:22.386Z,69.47
2018-02-18T13:27:49.875Z,72.80
2018-02-18T13:30:17.359Z,77.13
2018-02-18T13:32:44.865Z,67.60
2018-02-18T13:35:12.345Z,62.40
2018-02-18T13:37:40.597Z,63.90
2018-02-18T13:40:08.103Z,60.70
2018-02-18T13:42:35.602Z,68.53
2018-02-18T13:45:03.135Z,55.30
2018-02-18T13:47:30.628Z,63.60
2018-02-18T13:49:58.143Z,61.70
2018-02-18T13:52:25.704Z,60.67
2018-02-18T13:54:53.251Z,51.83
2018-02-18T13:57:21.936Z,52.37
2018-02-18T13:59:49.456Z,60.93
2018-02-18T14:02:16.960Z,61.80
2018-02-18T14:04:44.485Z,56.30
2018-02-18T14:07:12.040Z,51.60
2018-02-18T14:09:39.538Z,54.93
2018-02-18T14:12:07.023Z,53.37
2018-02-18T14:14:34.719Z,60.43
2018-02-18T14:17:02.237Z,56.80
2018-02-18T14:19:29.712Z,55.07
2018-02-18T14:21:57.189Z,54.33
2018-02-18T14:24:24.692Z,51.77
2018-02-18T14:26:52.166Z,48.90
2018-02-18T14:29:19.832Z,53.07
2018-02-18T14:31:48.087Z,51.27
2018-02-18T14:34:16.341Z,46.17
2018-02-18T14:36:43.869Z,48.30
2018-02-18T14:39:11.371Z,44.17
2018-02-18T14:41:51.662Z,48.27
2018-02-18T14:44:31.033Z,44.97
2018-02-18T14:50:13.350Z,40.07
2018-02-18T14:52:52.940Z,47.30
2018-02-18T14:55:36.017Z,34.20
2018-02-18T14:58:04.333Z,39.93
2018-02-18T15:00:31.801Z,40.30
2018-02-18T15:03:00.081Z,33.27
2018-02-18T15:05:28.369Z,30.07
2018-02-18T15:07:56.604Z,35.67
2018-02-18T15:10:24.080Z,33.10
2018-02-18T15:12:51.687Z,28.00
2018-02-18T15:15:19.189Z,24.67
2018-02-18T15:17:46.668Z,23.77
2018-02-18T15:20:15.067Z,25.87
2018-02-18T15:22:42.686Z,25.00
2018-02-18T15:25:10.190Z,21.90
2018-02-18T15:27:37.681Z,26.10
2018-02-18T15:30:05.152Z,23.27
2018-02-18T15:32:32.696Z,22.20
2018-02-18T15:35:00.173Z,21.33
2018-02-18T15:37:27.699Z,24.13
2018-02-18T15:39:55.257Z,22.97
2018-02-18T15:42:22.733Z,29.93
2018-02-18T15:44:50.225Z,26.03
2018-02-18T15:47:17.713Z,28.80
2018-02-18T15:49:45.265Z,28.20
2018-02-18T15:52:12.802Z,26.93
2018-02-18T15:54:40.327Z,31.47
2018-02-18T15:57:07.929Z,32.47
2018-02-18T15:59:35.420Z,26.03
2018-02-18T16:02:02.895Z,20.97
2018-02-18T16:04:30.374Z,21.10
2018-02-18T16:06:57.876Z,20.97
2018-02-18T16:09:26.261Z,22.60
2018-02-18T16:11:54.498Z,22.00
2018-02-18T16:14:21.993Z,20.33
2018-02-18T16:16:50.228Z,29.60
2018-02-18T16:19:17.728Z,23.30
2018-02-18T16:21:45.988Z,28.23
2018-02-18T16:24:13.464Z,32.23
2018-02-18T16:26:41.706Z,30.73
2018-02-18T16:29:09.197Z,23.13
2018-02-18T16:31:37.441Z,26.53
2018-02-18T16:34:05.903Z,24.70
2018-02-18T16:36:33.549Z,21.60
2018-02-18T16:39:01.131Z,15.20
2018-02-18T16:41:29.350Z,13.33
2018-02-18T16:43:57.610Z,15.20
2018-02-18T16:46:25.072Z,8.30
2018-02-18T16:48:53.102Z,15.33
2018-02-18T16:51:21.076Z,11.83
2018-02-18T16:53:48.865Z,8.90
2018-02-18T16:56:16.352Z,7.00
2018-02-18T16:58:43.815Z,5.63
2018-02-18T17:01:11.277Z,8.37
2018-02-18T17:03:39.756Z,7.27
2018-02-18T17:06:07.999Z,19.43
2018-02-18T17:08:35.550Z,17.50
2018-02-18T17:11:03.041Z,7.60
2018-02-18T17:13:30.509Z,6.17
2018-02-18T17:15:58.053Z,12.87
2018-02-18T17:18:25.544Z,10.83
2018-02-18T17:20:53.904Z,8.13
2018-02-18T17:23:22.882Z,5.37
2018-02-18T17:25:51.945Z,12.47
2018-02-18T17:28:19.529Z,5.53
2018-02-18T17:30:47.135Z,4.83
2018-02-18T17:33:15.582Z,4.93
2018-02-18T17:35:43.160Z,5.40
2018-02-18T17:38:10.772Z,12.90
2018-02-18T17:40:39.072Z,15.03
2018-02-18T17:43:06.667Z,6.03
2018-02-18T17:45:34.984Z,6.53
2018-02-18T17:48:02.502Z,7.27
2018-02-18T17:50:29.964Z,6.83
2018-02-18T17:52:58.226Z,7.33
2018-02-18T17:55:25.706Z,7.67
2018-02-18T17:57:53.949Z,6.57
2018-02-18T18:00:21.429Z,6.80
2018-02-18T18:02:48.893Z,8.60
2018-02-18T18:05:17.134Z,7.07
2018-02-18T18:07:44.724Z,14.00
2018-02-18T18:10:12.317Z,5.57
2018-02-18T18:12:39.945Z,7.80
2018-02-18T18:15:08.388Z,7.07
2018-02-18T18:17:35.949Z,6.60
2018-02-18T18:20:03.554Z,5.40
2018-02-18T18:22:31.066Z,6.47
2018-02-18T18:24:58.536Z,8.63
2018-02-18T18:27:26.082Z,7.10
2018-02-18T18:29:53.665Z,9.70
2018-02-18T18:32:21.280Z,11.97
2018-02-18T18:34:48.910Z,14.43
2018-02-18T18:37:16.445Z,20.03
2018-02-18T18:39:43.920Z,10.10
2018-02-18T18:42:12.991Z,9.63
2018-02-18T18:44:40.642Z,10.03
2018-02-18T18:47:08.156Z,14.60
2018-02-18T18:49:35.785Z,9.50
2018-02-18T18:52:03.301Z,10.13
2018-02-18T18:54:30.834Z,10.87
2018-02-18T18:56:58.321Z,10.27
2018-02-18T18:59:25.795Z,12.77
2018-02-18T19:01:53.256Z,9.30
2018-02-18T19:04:20.815Z,10.20
2018-02-18T19:06:48.353Z,9.87
2018-02-18T19:09:16.711Z,11.90
2018-02-18T19:11:44.224Z,7.13
2018-02-18T19:14:11.694Z,10.37
2018-02-18T19:16:39.288Z,20.00
2018-02-18T19:19:06.764Z,7.80
2018-02-18T19:21:35.000Z,5.23
2018-02-18T19:24:02.484Z,5.00
2018-02-18T19:26:29.957Z,4.73
2018-02-18T19:28:58.244Z,9.60
2018-02-18T19:31:26.593Z,6.80
2018-02-18T19:33:54.068Z,6.83
2018-02-18T19:36:22.323Z,5.27
2018-02-18T19:38:49.825Z,7.50
2018-02-18T19:41:17.299Z,5.00
2018-02-18T19:43:44.862Z,6.00
2018-02-18T19:46:12.340Z,5.90
2018-02-18T19:48:39.810Z,7.53
2018-02-18T19:51:07.300Z,7.20
2018-02-18T19:53:35.590Z,6.80
2018-02-18T19:56:03.854Z,7.97
2018-02-18T19:58:32.127Z,9.07
2018-02-18T20:01:00.360Z,9.73
2018-02-18T20:03:27.918Z,8.47
2018-02-18T20:05:55.558Z,8.50
2018-02-18T20:08:23.058Z,7.83
2018-02-18T20:10:50.542Z,7.33
2018-02-18T20:13:18.842Z,7.10
2018-02-18T20:15:46.340Z,8.27
2018-02-18T20:18:13.852Z,73.70
2018-02-18T20:20:42.095Z,14.23
2018-02-18T20:23:09.620Z,10.90
2018-02-18T20:25:37.245Z,9.13
2018-02-18T20:28:05.655Z,7.17
2018-02-18T20:30:33.125Z,7.83
2018-02-18T20:33:00.629Z,10.07
2018-02-18T20:35:28.102Z,6.17
2018-02-18T20:37:56.336Z,6.30
2018-02-18T20:40:23.834Z,5.53
2018-02-18T20:42:52.118Z,5.10
2018-02-18T20:45:20.397Z,33.87
2018-02-18T20:47:48.677Z,7.20
2018-02-18T20:50:16.939Z,45.63
2018-02-18T20:52:45.258Z,18.80
2018-02-18T20:55:12.789Z,10.47
2018-02-18T20:57:41.061Z,47.87
2018-02-18T21:00:09.334Z,56.20
2018-02-18T21:05:19.725Z,8.93
2018-02-18T21:07:48.048Z,51.37
2018-02-18T21:10:15.585Z,11.50
2018-02-18T21:12:43.076Z,40.07
2018-02-18T21:15:10.711Z,9.93
2018-02-18T21:17:38.198Z,10.07
2018-02-18T21:20:05.681Z,13.30
2018-02-18T21:22:33.200Z,7.53
2018-02-18T21:25:00.724Z,7.57
2018-02-18T21:27:28.973Z,11.40
2018-02-18T21:29:56.476Z,14.87
2018-02-18T21:32:23.970Z,7.50
2018-02-18T21:34:51.502Z,15.83
2018-02-18T21:37:19.015Z,7.13
2018-02-18T21:39:46.497Z,22.43
2018-02-18T21:42:14.743Z,5.37
2018-02-18T21:44:42.233Z,6.27
2018-02-18T21:47:10.480Z,6.20
2018-02-18T21:49:37.965Z,7.27
2018-02-18T21:52:06.222Z,8.37
2018-02-18T21:54:33.689Z,9.00
2018-02-18T21:57:02.016Z,9.87
2018-02-18T21:59:29.569Z,6.30
2018-02-18T22:01:57.044Z,6.77
2018-02-18T22:04:24.520Z,9.43
2018-02-18T22:06:52.008Z,7.30
2018-02-18T22:09:20.245Z,8.73
2018-02-18T22:11:47.724Z,12.17
2018-02-18T22:14:15.196Z,8.20
2018-02-18T22:16:42.665Z,7.60
2018-02-18T22:19:10.908Z,9.13
2018-02-18T22:21:38.388Z,10.10
2018-02-18T22:24:05.948Z,12.70
2018-02-18T22:26:33.438Z,11.87
2018-02-18T22:29:00.905Z,10.70
2018-02-18T22:31:28.374Z,9.47
2018-02-18T22:33:55.899Z,13.17
2018-02-18T22:36:24.170Z,12.63
2018-02-18T22:38:52.412Z,9.20
2018-02-18T22:41:19.909Z,10.60
2018-02-18T22:43:48.142Z,10.17
2018-02-18T22:46:15.617Z,12.80
2018-02-18T22:48:43.113Z,14.20
2018-02-18T22:51:11.348Z,15.10
2018-02-18T22:53:38.808Z,13.17
2018-02-18T22:56:06.297Z,11.70
2018-02-18T22:58:34.570Z,14.87
2018-02-18T23:01:02.848Z,12.10
2018-02-18T23:03:31.113Z,15.03
2018-02-18T23:05:58.591Z,10.70
2018-02-18T23:08:26.841Z,11.20
2018-02-18T23:10:54.317Z,11.10
2018-02-18T23:13:22.553Z,12.57
2018-02-18T23:15:50.044Z,17.60
2018-02-18T23:18:17.517Z,10.90
2018-02-18T23:23:46.892Z,13.97
2018-02-18T23:26:14.385Z,11.50
2018-02-18T23:28:41.853Z,13.90
2018-02-18T23:31:10.088Z,13.37
2018-02-18T23:33:37.578Z,12.03
2018-02-18T23:36:05.044Z,11.90
2018-02-18T23:38:32.521Z,9.47
2018-02-18T23:41:00.767Z,11.73
2018-02-18T23:43:28.235Z,10.10
2018-02-18T23:45:55.728Z,10.50
2018-02-18T23:48:23.264Z,13.60
2018-02-18T23:50:51.884Z,11.70
2018-02-18T23:53:19.368Z,11.60
2018-02-18T23:55:51.944Z,11.10
2018-02-18T23:58:20.090Z,13.20
